sensor_id;sensor_type;location;lat;lon;timestamp;P1;durP1;ratioP1;P2;durP2;ratioP2
21120;SDS011;12519;43.318;21.898;2024-01-30T00:03:19;47.0;;;39.0;;
21120;SDS011;12519;43.318;21.898;2024-01-30T00:07:55;47.0;;;39.0;;
21120;SDS011;12519;43.318;21.898;2024-01-30T00:12:31;56.0;;;44.0;;
21120;SDS011;12519;43.318;21.898;2024-01-30T00:17:07;56.0;;;44.0;;
21120;SDS011;12519;43.318;21.898;2024-01-30T00:21:43;65.0;;;48.0;;
21120;SDS011;12519;43.318;21.898;2024-01-30T00:26:20;65.0;;;48.0;;
21120;SDS011;12519;43.318;21.898;2024-01-30T00:30:56;52.0;;;40.0;;
21120;SDS011;12519;43.318;21.898;2024-01-30T00:35:32;52.0;;;40.0;;
21120;SDS011;12519;43.318;21.898;2024-01-30T00:40:08;40.0;;;31.0;;
21120;SDS011;12519;43.318;21.898;2024-01-30T00:44:46;40.0;;;31.0;;
21120;SDS011;12519;43.318;21.898;2024-01-30T00:49:22;27.0;;;22.0;;
21120;SDS011;12519;43.318;21.898;2024-01-30T00:53:58;27.0;;;22.0;;
21120;SDS011;12519;43.318;21.898;2024-01-30T00:58:34;14.0;;;13.0;;
21120;SDS011;12519;43.318;21.898;2024-01-30T01:03:10;14.0;;;13.0;;
21120;SDS011;12519;43.318;21.898;2024-01-30T01:07:46;14.0;;;13.0;;
21120;SDS011;12519;43.318;21.898;2024-01-30T01:12:22;12.0;;;11.0;;
21120;SDS011;12519;43.318;21.898;2024-01-30T01:16:58;12.0;;;11.0;;
21120;SDS011;12519;43.318;21.898;2024-01-30T01:21:34;11.0;;;9.0;;
21120;SDS011;12519;43.318;21.898;2024-01-30T01:26:12;11.0;;;9.0;;
21120;SDS011;12519;43.318;21.898;2024-01-30T01:30:49;14.0;;;12.0;;
21120;SDS011;12519;43.318;21.898;2024-01-30T01:35:25;14.0;;;12.0;;
21120;SDS011;12519;43.318;21.898;2024-01-30T01:40:02;18.0;;;14.0;;
21120;SDS011;12519;43.318;21.898;2024-01-30T01:44:45;18.0;;;14.0;;
21120;SDS011;12519;43.318;21.898;2024-01-30T01:49:22;14.0;;;12.0;;
21120;SDS011;12519;43.318;21.898;2024-01-30T01:54:04;14.0;;;12.0;;
21120;SDS011;12519;43.318;21.898;2024-01-30T01:58:44;11.0;;;10.0;;
21120;SDS011;12519;43.318;21.898;2024-01-30T02:03:34;11.0;;;10.0;;
21120;SDS011;12519;43.318;21.898;2024-01-30T02:08:10;11.0;;;10.0;;
21120;SDS011;12519;43.318;21.898;2024-01-30T02:12:47;10.0;;;9.0;;
21120;SDS011;12519;43.318;21.898;2024-01-30T02:17:24;10.0;;;9.0;;
21120;SDS011;12519;43.318;21.898;2024-01-30T02:22:00;10.0;;;8.0;;
21120;SDS011;12519;43.318;21.898;2024-01-30T02:26:36;10.0;;;8.0;;
21120;SDS011;12519;43.318;21.898;2024-01-30T02:31:12;11.0;;;8.0;;
21120;SDS011;12519;43.318;21.898;2024-01-30T02:35:48;11.0;;;8.0;;
21120;SDS011;12519;43.318;21.898;2024-01-30T02:40:25;12.0;;;8.0;;
21120;SDS011;12519;43.318;21.898;2024-01-30T02:45:01;12.0;;;8.0;;
21120;SDS011;12519;43.318;21.898;2024-01-30T02:49:38;12.0;;;9.0;;
21120;SDS011;12519;43.318;21.898;2024-01-30T02:54:14;12.0;;;9.0;;
21120;SDS011;12519;43.318;21.898;2024-01-30T02:58:50;11.0;;;10.0;;
21120;SDS011;12519;43.318;21.898;2024-01-30T03:03:26;11.0;;;10.0;;
21120;SDS011;12519;43.318;21.898;2024-01-30T03:08:03;11.0;;;10.0;;
21120;SDS011;12519;43.318;21.898;2024-01-30T03:12:41;11.0;;;10.0;;
21120;SDS011;12519;43.318;21.898;2024-01-30T03:17:17;11.0;;;10.0;;
21120;SDS011;12519;43.318;21.898;2024-01-30T03:21:53;11.0;;;11.0;;
21120;SDS011;12519;43.318;21.898;2024-01-30T03:26:30;11.0;;;11.0;;
21120;SDS011;12519;43.318;21.898;2024-01-30T03:31:06;13.0;;;10.0;;
21120;SDS011;12519;43.318;21.898;2024-01-30T03:35:42;13.0;;;10.0;;
21120;SDS011;12519;43.318;21.898;2024-01-30T03:40:18;15.0;;;10.0;;
21120;SDS011;12519;43.318;21.898;2024-01-30T03:44:55;15.0;;;10.0;;
21120;SDS011;12519;43.318;21.898;2024-01-30T03:49:32;14.0;;;10.0;;
21120;SDS011;12519;43.318;21.898;2024-01-30T03:54:07;14.0;;;10.0;;
21120;SDS011;12519;43.318;21.898;2024-01-30T03:58:44;14.0;;;10.0;;
21120;SDS011;12519;43.318;21.898;2024-01-30T04:03:20;14.0;;;11.0;;
21120;SDS011;12519;43.318;21.898;2024-01-30T04:07:56;14.0;;;11.0;;
21120;SDS011;12519;43.318;21.898;2024-01-30T04:12:34;14.0;;;10.0;;
21120;SDS011;12519;43.318;21.898;2024-01-30T04:17:11;14.0;;;10.0;;
21120;SDS011;12519;43.318;21.898;2024-01-30T04:21:48;14.0;;;10.0;;
21120;SDS011;12519;43.318;21.898;2024-01-30T04:26:24;14.0;;;10.0;;
21120;SDS011;12519;43.318;21.898;2024-01-30T04:31:01;13.0;;;10.0;;
21120;SDS011;12519;43.318;21.898;2024-01-30T04:35:39;13.0;;;10.0;;
21120;SDS011;12519;43.318;21.898;2024-01-30T04:40:15;12.0;;;11.0;;
21120;SDS011;12519;43.318;21.898;2024-01-30T04:44:53;12.0;;;11.0;;
21120;SDS011;12519;43.318;21.898;2024-01-30T04:49:29;11.0;;;10.0;;
21120;SDS011;12519;43.318;21.898;2024-01-30T04:54:05;11.0;;;10.0;;
21120;SDS011;12519;43.318;21.898;2024-01-30T04:58:41;11.0;;;10.0;;
21120;SDS011;12519;43.318;21.898;2024-01-30T05:03:18;10.0;;;9.0;;
21120;SDS011;12519;43.318;21.898;2024-01-30T05:07:55;10.0;;;9.0;;
21120;SDS011;12519;43.318;21.898;2024-01-30T05:12:31;10.0;;;9.0;;
21120;SDS011;12519;43.318;21.898;2024-01-30T05:17:07;10.0;;;9.0;;
21120;SDS011;12519;43.318;21.898;2024-01-30T05:21:43;11.0;;;9.0;;
21120;SDS011;12519;43.318;21.898;2024-01-30T05:26:20;11.0;;;9.0;;
21120;SDS011;12519;43.318;21.898;2024-01-30T05:30:56;9.0;;;8.0;;
21120;SDS011;12519;43.318;21.898;2024-01-30T05:35:32;9.0;;;8.0;;
21120;SDS011;12519;43.318;21.898;2024-01-30T05:40:09;7.0;;;7.0;;
21120;SDS011;12519;43.318;21.898;2024-01-30T05:44:47;7.0;;;7.0;;
21120;SDS011;12519;43.318;21.898;2024-01-30T05:49:23;9.0;;;8.0;;
21120;SDS011;12519;43.318;21.898;2024-01-30T05:54:00;9.0;;;8.0;;
21120;SDS011;12519;43.318;21.898;2024-01-30T05:58:36;9.0;;;8.0;;
21120;SDS011;12519;43.318;21.898;2024-01-30T06:03:12;11.0;;;9.0;;
21120;SDS011;12519;43.318;21.898;2024-01-30T06:07:48;11.0;;;9.0;;
21120;SDS011;12519;43.318;21.898;2024-01-30T06:12:24;9.0;;;8.0;;
21120;SDS011;12519;43.318;21.898;2024-01-30T06:17:00;9.0;;;8.0;;
21120;SDS011;12519;43.318;21.898;2024-01-30T06:21:36;7.0;;;6.0;;
21120;SDS011;12519;43.318;21.898;2024-01-30T06:26:12;7.0;;;6.0;;
21120;SDS011;12519;43.318;21.898;2024-01-30T06:30:48;12.0;;;10.0;;
21120;SDS011;12519;43.318;21.898;2024-01-30T06:35:24;12.0;;;10.0;;
21120;SDS011;12519;43.318;21.898;2024-01-30T06:40:00;16.0;;;15.0;;
21120;SDS011;12519;43.318;21.898;2024-01-30T06:44:36;16.0;;;15.0;;
21120;SDS011;12519;43.318;21.898;2024-01-30T06:49:13;16.0;;;15.0;;
21120;SDS011;12519;43.318;21.898;2024-01-30T06:53:49;72.0;;;67.0;;
21120;SDS011;12519;43.318;21.898;2024-01-30T06:58:26;72.0;;;67.0;;
21120;SDS011;12519;43.318;21.898;2024-01-30T07:03:03;129.0;;;119.0;;
21120;SDS011;12519;43.318;21.898;2024-01-30T07:07:40;129.0;;;119.0;;
21120;SDS011;12519;43.318;21.898;2024-01-30T07:12:17;80.0;;;74.0;;
21120;SDS011;12519;43.318;21.898;2024-01-30T07:16:54;80.0;;;74.0;;
21120;SDS011;12519;43.318;21.898;2024-01-30T07:21:31;30.0;;;28.0;;
21120;SDS011;12519;43.318;21.898;2024-01-30T07:26:08;30.0;;;28.0;;
21120;SDS011;12519;43.318;21.898;2024-01-30T07:30:46;42.0;;;36.0;;
21120;SDS011;12519;43.318;21.898;2024-01-30T07:35:24;42.0;;;36.0;;
21120;SDS011;12519;43.318;21.898;2024-01-30T07:40:00;55.0;;;45.0;;
21120;SDS011;12519;43.318;21.898;2024-01-30T07:44:40;55.0;;;45.0;;
21120;SDS011;12519;43.318;21.898;2024-01-30T07:49:16;55.0;;;45.0;;
21120;SDS011;12519;43.318;21.898;2024-01-30T07:53:52;76.0;;;60.0;;
21120;SDS011;12519;43.318;21.898;2024-01-30T07:58:28;76.0;;;60.0;;
21120;SDS011;12519;43.318;21.898;2024-01-30T08:03:04;96.0;;;75.0;;
21120;SDS011;12519;43.318;21.898;2024-01-30T08:07:40;96.0;;;75.0;;
21120;SDS011;12519;43.318;21.898;2024-01-30T08:12:17;69.0;;;51.0;;
21120;SDS011;12519;43.318;21.898;2024-01-30T08:16:54;69.0;;;51.0;;
21120;SDS011;12519;43.318;21.898;2024-01-30T08:21:30;42.0;;;27.0;;
21120;SDS011;12519;43.318;21.898;2024-01-30T08:26:06;42.0;;;27.0;;
21120;SDS011;12519;43.318;21.898;2024-01-30T08:30:43;36.0;;;25.0;;
21120;SDS011;12519;43.318;21.898;2024-01-30T08:35:19;36.0;;;25.0;;
21120;SDS011;12519;43.318;21.898;2024-01-30T08:39:56;29.0;;;23.0;;
21120;SDS011;12519;43.318;21.898;2024-01-30T08:44:32;29.0;;;23.0;;
21120;SDS011;12519;43.318;21.898;2024-01-30T08:49:08;29.0;;;23.0;;
21120;SDS011;12519;43.318;21.898;2024-01-30T08:53:45;20.0;;;17.0;;
21120;SDS011;12519;43.318;21.898;2024-01-30T08:58:21;20.0;;;17.0;;
21120;SDS011;12519;43.318;21.898;2024-01-30T09:02:57;11.0;;;11.0;;
21120;SDS011;12519;43.318;21.898;2024-01-30T09:07:33;11.0;;;11.0;;
21120;SDS011;12519;43.318;21.898;2024-01-30T09:12:09;10.0;;;9.0;;
21120;SDS011;12519;43.318;21.898;2024-01-30T09:16:45;10.0;;;9.0;;
21120;SDS011;12519;43.318;21.898;2024-01-30T09:21:21;9.0;;;7.0;;
21120;SDS011;12519;43.318;21.898;2024-01-30T09:25:58;9.0;;;7.0;;
21120;SDS011;12519;43.318;21.898;2024-01-30T09:30:35;9.0;;;8.0;;
21120;SDS011;12519;43.318;21.898;2024-01-30T09:35:11;9.0;;;8.0;;
21120;SDS011;12519;43.318;21.898;2024-01-30T09:39:47;9.0;;;8.0;;
21120;SDS011;12519;43.318;21.898;2024-01-30T09:44:24;9.0;;;8.0;;
21120;SDS011;12519;43.318;21.898;2024-01-30T09:49:07;9.0;;;8.0;;
21120;SDS011;12519;43.318;21.898;2024-01-30T09:53:48;8.0;;;8.0;;
21120;SDS011;12519;43.318;21.898;2024-01-30T09:58:28;8.0;;;8.0;;
21120;SDS011;12519;43.318;21.898;2024-01-30T10:03:05;8.0;;;7.0;;
21120;SDS011;12519;43.318;21.898;2024-01-30T10:07:49;8.0;;;7.0;;
21120;SDS011;12519;43.318;21.898;2024-01-30T10:12:32;10.0;;;10.0;;
21120;SDS011;12519;43.318;21.898;2024-01-30T10:17:09;10.0;;;10.0;;
21120;SDS011;12519;43.318;21.898;2024-01-30T10:21:48;13.0;;;12.0;;
21120;SDS011;12519;43.318;21.898;2024-01-30T10:26:25;13.0;;;12.0;;
21120;SDS011;12519;43.318;21.898;2024-01-30T10:31:02;12.0;;;10.0;;
21120;SDS011;12519;43.318;21.898;2024-01-30T10:35:39;12.0;;;10.0;;
21120;SDS011;12519;43.318;21.898;2024-01-30T10:40:16;10.0;;;9.0;;
21120;SDS011;12519;43.318;21.898;2024-01-30T10:45:06;10.0;;;9.0;;
21120;SDS011;12519;43.318;21.898;2024-01-30T10:49:48;11.0;;;10.0;;
21120;SDS011;12519;43.318;21.898;2024-01-30T10:54:29;11.0;;;10.0;;
21120;SDS011;12519;43.318;21.898;2024-01-30T10:59:12;11.0;;;10.0;;
21120;SDS011;12519;43.318;21.898;2024-01-30T11:03:51;12.0;;;10.0;;
21120;SDS011;12519;43.318;21.898;2024-01-30T11:08:32;12.0;;;10.0;;
21120;SDS011;12519;43.318;21.898;2024-01-30T11:13:10;10.0;;;10.0;;
21120;SDS011;12519;43.318;21.898;2024-01-30T11:17:50;10.0;;;10.0;;
21120;SDS011;12519;43.318;21.898;2024-01-30T11:22:30;9.0;;;9.0;;
21120;SDS011;12519;43.318;21.898;2024-01-30T11:27:08;9.0;;;9.0;;
21120;SDS011;12519;43.318;21.898;2024-01-30T11:31:52;10.0;;;9.0;;
21120;SDS011;12519;43.318;21.898;2024-01-30T11:36:29;10.0;;;9.0;;
21120;SDS011;12519;43.318;21.898;2024-01-30T11:41:14;11.0;;;9.0;;
21120;SDS011;12519;43.318;21.898;2024-01-30T11:45:53;11.0;;;9.0;;
21120;SDS011;12519;43.318;21.898;2024-01-30T11:50:29;10.0;;;8.0;;
21120;SDS011;12519;43.318;21.898;2024-01-30T11:55:07;10.0;;;8.0;;
21120;SDS011;12519;43.318;21.898;2024-01-30T11:59:45;10.0;;;8.0;;
21120;SDS011;12519;43.318;21.898;2024-01-30T12:04:21;8.0;;;8.0;;
21120;SDS011;12519;43.318;21.898;2024-01-30T12:08:58;8.0;;;8.0;;
21120;SDS011;12519;43.318;21.898;2024-01-30T12:13:38;8.0;;;8.0;;
21120;SDS011;12519;43.318;21.898;2024-01-30T12:18:18;8.0;;;8.0;;
21120;SDS011;12519;43.318;21.898;2024-01-30T12:22:54;7.0;;;7.0;;
21120;SDS011;12519;43.318;21.898;2024-01-30T12:27:31;7.0;;;7.0;;
21120;SDS011;12519;43.318;21.898;2024-01-30T12:32:08;37.0;;;24.0;;
21120;SDS011;12519;43.318;21.898;2024-01-30T12:36:49;37.0;;;24.0;;
21120;SDS011;12519;43.318;21.898;2024-01-30T12:41:26;67.0;;;41.0;;
21120;SDS011;12519;43.318;21.898;2024-01-30T12:46:03;67.0;;;41.0;;
21120;SDS011;12519;43.318;21.898;2024-01-30T12:50:41;63.0;;;42.0;;
21120;SDS011;12519;43.318;21.898;2024-01-30T12:55:17;63.0;;;42.0;;
21120;SDS011;12519;43.318;21.898;2024-01-30T12:59:53;63.0;;;42.0;;
21120;SDS011;12519;43.318;21.898;2024-01-30T13:04:29;59.0;;;43.0;;
21120;SDS011;12519;43.318;21.898;2024-01-30T13:09:06;59.0;;;43.0;;
21120;SDS011;12519;43.318;21.898;2024-01-30T13:13:42;33.0;;;25.0;;
21120;SDS011;12519;43.318;21.898;2024-01-30T13:18:18;33.0;;;25.0;;
21120;SDS011;12519;43.318;21.898;2024-01-30T13:22:54;7.0;;;7.0;;
21120;SDS011;12519;43.318;21.898;2024-01-30T13:27:30;7.0;;;7.0;;
21120;SDS011;12519;43.318;21.898;2024-01-30T13:32:06;7.0;;;7.0;;
21120;SDS011;12519;43.318;21.898;2024-01-30T13:36:42;7.0;;;7.0;;
21120;SDS011;12519;43.318;21.898;2024-01-30T13:41:19;7.0;;;7.0;;
21120;SDS011;12519;43.318;21.898;2024-01-30T13:45:55;7.0;;;7.0;;
21120;SDS011;12519;43.318;21.898;2024-01-30T13:50:31;7.0;;;6.0;;
21120;SDS011;12519;43.318;21.898;2024-01-30T13:55:07;7.0;;;6.0;;
21120;SDS011;12519;43.318;21.898;2024-01-30T13:59:44;7.0;;;6.0;;
21120;SDS011;12519;43.318;21.898;2024-01-30T14:04:20;7.0;;;6.0;;
21120;SDS011;12519;43.318;21.898;2024-01-30T14:08:56;7.0;;;6.0;;
21120;SDS011;12519;43.318;21.898;2024-01-30T14:13:32;8.0;;;7.0;;
21120;SDS011;12519;43.318;21.898;2024-01-30T14:18:08;8.0;;;7.0;;
21120;SDS011;12519;43.318;21.898;2024-01-30T14:22:44;9.0;;;8.0;;
21120;SDS011;12519;43.318;21.898;2024-01-30T14:27:21;9.0;;;8.0;;
21120;SDS011;12519;43.318;21.898;2024-01-30T14:31:56;8.0;;;8.0;;
21120;SDS011;12519;43.318;21.898;2024-01-30T14:36:32;8.0;;;8.0;;
21120;SDS011;12519;43.318;21.898;2024-01-30T14:41:08;8.0;;;7.0;;
21120;SDS011;12519;43.318;21.898;2024-01-30T14:45:44;8.0;;;7.0;;
21120;SDS011;12519;43.318;21.898;2024-01-30T14:50:20;10.0;;;8.0;;
21120;SDS011;12519;43.318;21.898;2024-01-30T14:54:57;10.0;;;8.0;;
21120;SDS011;12519;43.318;21.898;2024-01-30T14:59:33;10.0;;;8.0;;
21120;SDS011;12519;43.318;21.898;2024-01-30T15:04:10;11.0;;;8.0;;
21120;SDS011;12519;43.318;21.898;2024-01-30T15:08:47;11.0;;;8.0;;
21120;SDS011;12519;43.318;21.898;2024-01-30T15:13:24;10.0;;;8.0;;
21120;SDS011;12519;43.318;21.898;2024-01-30T15:18:00;10.0;;;8.0;;
21120;SDS011;12519;43.318;21.898;2024-01-30T15:22:39;10.0;;;8.0;;
21120;SDS011;12519;43.318;21.898;2024-01-30T15:27:15;10.0;;;8.0;;
21120;SDS011;12519;43.318;21.898;2024-01-30T15:31:52;10.0;;;9.0;;
21120;SDS011;12519;43.318;21.898;2024-01-30T15:36:28;10.0;;;9.0;;
21120;SDS011;12519;43.318;21.898;2024-01-30T15:41:05;11.0;;;10.0;;
21120;SDS011;12519;43.318;21.898;2024-01-30T15:45:42;11.0;;;10.0;;
21120;SDS011;12519;43.318;21.898;2024-01-30T15:50:18;11.0;;;10.0;;
21120;SDS011;12519;43.318;21.898;2024-01-30T15:54:55;15.0;;;12.0;;
21120;SDS011;12519;43.318;21.898;2024-01-30T15:59:31;15.0;;;12.0;;
21120;SDS011;12519;43.318;21.898;2024-01-30T16:04:07;19.0;;;14.0;;
21120;SDS011;12519;43.318;21.898;2024-01-30T16:08:43;19.0;;;14.0;;
21120;SDS011;12519;43.318;21.898;2024-01-30T16:13:19;17.0;;;14.0;;
21120;SDS011;12519;43.318;21.898;2024-01-30T16:17:55;17.0;;;14.0;;
21120;SDS011;12519;43.318;21.898;2024-01-30T16:22:31;15.0;;;14.0;;
21120;SDS011;12519;43.318;21.898;2024-01-30T16:27:08;15.0;;;14.0;;
21120;SDS011;12519;43.318;21.898;2024-01-30T16:31:44;16.0;;;15.0;;
21120;SDS011;12519;43.318;21.898;2024-01-30T16:36:20;16.0;;;15.0;;
21120;SDS011;12519;43.318;21.898;2024-01-30T16:40:56;18.0;;;16.0;;
21120;SDS011;12519;43.318;21.898;2024-01-30T16:45:32;18.0;;;16.0;;
21120;SDS011;12519;43.318;21.898;2024-01-30T16:50:08;18.0;;;16.0;;
21120;SDS011;12519;43.318;21.898;2024-01-30T16:54:45;16.0;;;15.0;;
21120;SDS011;12519;43.318;21.898;2024-01-30T16:59:21;16.0;;;15.0;;
21120;SDS011;12519;43.318;21.898;2024-01-30T17:03:57;14.0;;;14.0;;
21120;SDS011;12519;43.318;21.898;2024-01-30T17:08:33;14.0;;;14.0;;
21120;SDS011;12519;43.318;21.898;2024-01-30T17:13:09;16.0;;;15.0;;
21120;SDS011;12519;43.318;21.898;2024-01-30T17:17:45;16.0;;;15.0;;
21120;SDS011;12519;43.318;21.898;2024-01-30T17:22:21;19.0;;;16.0;;
21120;SDS011;12519;43.318;21.898;2024-01-30T17:26:57;19.0;;;16.0;;
21120;SDS011;12519;43.318;21.898;2024-01-30T17:31:33;36.0;;;28.0;;
21120;SDS011;12519;43.318;21.898;2024-01-30T17:36:09;36.0;;;28.0;;
21120;SDS011;12519;43.318;21.898;2024-01-30T17:40:45;53.0;;;39.0;;
21120;SDS011;12519;43.318;21.898;2024-01-30T17:45:21;53.0;;;39.0;;
21120;SDS011;12519;43.318;21.898;2024-01-30T17:49:57;53.0;;;39.0;;
21120;SDS011;12519;43.318;21.898;2024-01-30T17:54:34;58.0;;;46.0;;
21120;SDS011;12519;43.318;21.898;2024-01-30T17:59:10;58.0;;;46.0;;
21120;SDS011;12519;43.318;21.898;2024-01-30T18:03:47;64.0;;;53.0;;
21120;SDS011;12519;43.318;21.898;2024-01-30T18:08:24;64.0;;;53.0;;
21120;SDS011;12519;43.318;21.898;2024-01-30T18:13:01;64.0;;;54.0;;
21120;SDS011;12519;43.318;21.898;2024-01-30T18:17:37;64.0;;;54.0;;
21120;SDS011;12519;43.318;21.898;2024-01-30T18:22:14;64.0;;;55.0;;
21120;SDS011;12519;43.318;21.898;2024-01-30T18:26:50;64.0;;;55.0;;
21120;SDS011;12519;43.318;21.898;2024-01-30T18:31:26;68.0;;;56.0;;
21120;SDS011;12519;43.318;21.898;2024-01-30T18:36:03;68.0;;;56.0;;
21120;SDS011;12519;43.318;21.898;2024-01-30T18:40:42;68.0;;;56.0;;
21120;SDS011;12519;43.318;21.898;2024-01-30T18:45:18;73.0;;;57.0;;
21120;SDS011;12519;43.318;21.898;2024-01-30T18:49:54;73.0;;;57.0;;
21120;SDS011;12519;43.318;21.898;2024-01-30T18:54:30;84.0;;;62.0;;
21120;SDS011;12519;43.318;21.898;2024-01-30T18:59:06;84.0;;;62.0;;
21120;SDS011;12519;43.318;21.898;2024-01-30T19:03:42;94.0;;;66.0;;
21120;SDS011;12519;43.318;21.898;2024-01-30T19:08:18;94.0;;;66.0;;
21120;SDS011;12519;43.318;21.898;2024-01-30T19:12:54;66.0;;;48.0;;
21120;SDS011;12519;43.318;21.898;2024-01-30T19:17:30;66.0;;;48.0;;
21120;SDS011;12519;43.318;21.898;2024-01-30T19:22:06;39.0;;;31.0;;
21120;SDS011;12519;43.318;21.898;2024-01-30T19:26:42;39.0;;;31.0;;
21120;SDS011;12519;43.318;21.898;2024-01-30T19:31:18;48.0;;;40.0;;
21120;SDS011;12519;43.318;21.898;2024-01-30T19:35:55;48.0;;;40.0;;
21120;SDS011;12519;43.318;21.898;2024-01-30T19:40:33;48.0;;;40.0;;
21120;SDS011;12519;43.318;21.898;2024-01-30T19:45:09;58.0;;;49.0;;
21120;SDS011;12519;43.318;21.898;2024-01-30T19:49:45;58.0;;;49.0;;
21120;SDS011;12519;43.318;21.898;2024-01-30T19:54:22;48.0;;;38.0;;
21120;SDS011;12519;43.318;21.898;2024-01-30T19:58:58;48.0;;;38.0;;
21120;SDS011;12519;43.318;21.898;2024-01-30T20:03:34;37.0;;;28.0;;
21120;SDS011;12519;43.318;21.898;2024-01-30T20:08:10;37.0;;;28.0;;
21120;SDS011;12519;43.318;21.898;2024-01-30T20:12:46;48.0;;;38.0;;
21120;SDS011;12519;43.318;21.898;2024-01-30T20:17:22;48.0;;;38.0;;
21120;SDS011;12519;43.318;21.898;2024-01-30T20:21:59;58.0;;;47.0;;
21120;SDS011;12519;43.318;21.898;2024-01-30T20:26:35;58.0;;;47.0;;
21120;SDS011;12519;43.318;21.898;2024-01-30T20:31:11;52.0;;;42.0;;
21120;SDS011;12519;43.318;21.898;2024-01-30T20:35:47;52.0;;;42.0;;
21120;SDS011;12519;43.318;21.898;2024-01-30T20:40:24;52.0;;;42.0;;
21120;SDS011;12519;43.318;21.898;2024-01-30T20:45:01;47.0;;;38.0;;
21120;SDS011;12519;43.318;21.898;2024-01-30T20:49:40;47.0;;;38.0;;
21120;SDS011;12519;43.318;21.898;2024-01-30T20:54:16;52.0;;;44.0;;
21120;SDS011;12519;43.318;21.898;2024-01-30T20:58:53;52.0;;;44.0;;
21120;SDS011;12519;43.318;21.898;2024-01-30T21:03:29;57.0;;;49.0;;
21120;SDS011;12519;43.318;21.898;2024-01-30T21:08:05;57.0;;;49.0;;
21120;SDS011;12519;43.318;21.898;2024-01-30T21:12:42;64.0;;;52.0;;
21120;SDS011;12519;43.318;21.898;2024-01-30T21:17:18;64.0;;;52.0;;
21120;SDS011;12519;43.318;21.898;2024-01-30T21:21:53;71.0;;;54.0;;
21120;SDS011;12519;43.318;21.898;2024-01-30T21:26:29;71.0;;;54.0;;
21120;SDS011;12519;43.318;21.898;2024-01-30T21:31:07;71.0;;;54.0;;
21120;SDS011;12519;43.318;21.898;2024-01-30T21:35:44;62.0;;;48.0;;
21120;SDS011;12519;43.318;21.898;2024-01-30T21:40:20;62.0;;;48.0;;
21120;SDS011;12519;43.318;21.898;2024-01-30T21:44:56;54.0;;;43.0;;
21120;SDS011;12519;43.318;21.898;2024-01-30T21:49:32;54.0;;;43.0;;
21120;SDS011;12519;43.318;21.898;2024-01-30T21:54:09;54.0;;;44.0;;
21120;SDS011;12519;43.318;21.898;2024-01-30T21:58:46;54.0;;;44.0;;
21120;SDS011;12519;43.318;21.898;2024-01-30T22:03:22;53.0;;;44.0;;
21120;SDS011;12519;43.318;21.898;2024-01-30T22:07:59;53.0;;;44.0;;
21120;SDS011;12519;43.318;21.898;2024-01-30T22:12:35;46.0;;;38.0;;
21120;SDS011;12519;43.318;21.898;2024-01-30T22:17:12;46.0;;;38.0;;
21120;SDS011;12519;43.318;21.898;2024-01-30T22:21:48;39.0;;;31.0;;
21120;SDS011;12519;43.318;21.898;2024-01-30T22:26:24;39.0;;;31.0;;
21120;SDS011;12519;43.318;21.898;2024-01-30T22:30:59;39.0;;;31.0;;
21120;SDS011;12519;43.318;21.898;2024-01-30T22:35:35;61.0;;;46.0;;
21120;SDS011;12519;43.318;21.898;2024-01-30T22:40:11;61.0;;;46.0;;
21120;SDS011;12519;43.318;21.898;2024-01-30T22:44:48;83.0;;;62.0;;
21120;SDS011;12519;43.318;21.898;2024-01-30T22:49:24;83.0;;;62.0;;
21120;SDS011;12519;43.318;21.898;2024-01-30T22:54:00;90.0;;;66.0;;
21120;SDS011;12519;43.318;21.898;2024-01-30T22:58:36;90.0;;;66.0;;
21120;SDS011;12519;43.318;21.898;2024-01-30T23:03:13;98.0;;;69.0;;
21120;SDS011;12519;43.318;21.898;2024-01-30T23:07:49;98.0;;;69.0;;
21120;SDS011;12519;43.318;21.898;2024-01-30T23:12:27;84.0;;;62.0;;
21120;SDS011;12519;43.318;21.898;2024-01-30T23:17:04;84.0;;;62.0;;
21120;SDS011;12519;43.318;21.898;2024-01-30T23:21:40;70.0;;;56.0;;
21120;SDS011;12519;43.318;21.898;2024-01-30T23:26:17;70.0;;;56.0;;
21120;SDS011;12519;43.318;21.898;2024-01-30T23:30:54;70.0;;;56.0;;
21120;SDS011;12519;43.318;21.898;2024-01-30T23:35:31;62.0;;;48.0;;
21120;SDS011;12519;43.318;21.898;2024-01-30T23:40:08;62.0;;;48.0;;
21120;SDS011;12519;43.318;21.898;2024-01-30T23:44:48;53.0;;;41.0;;
21120;SDS011;12519;43.318;21.898;2024-01-30T23:49:24;53.0;;;41.0;;
21120;SDS011;12519;43.318;21.898;2024-01-30T23:53:59;55.0;;;42.0;;
21120;SDS011;12519;43.318;21.898;2024-01-30T23:58:35;55.0;;;42.0;;
